Breidablick, Washington
Current Conditions -  °F | °C
As of 9:35 PM on Thursday 30 Oct 2014 (Local Time) from KPWT Reporting Station
Broken Clouds Broken Clouds  
Wind Chill: 54°   Ceiling: 4300
Heat Index: 54°   Visibility: 10mi
Dew Point: 52°   Wind: 8mph
Humidity: 94%   Direction: 200°SSW
Pressure: 29.77"   Gusts: NA
Location:  47.7571°N, 122.623°W
Report Text: KPWT 310435Z AUTO 20007KT 10SM BKN043 BKN050 12/11 A2977 RMK AO1
Loading
Personal Weather Stations






























Interactive Weather Map
Tropical Storm Tracking
New forecast layout! Learn more

10-Day Weather Forecast

Advertisements
Track Severe Weather on mobile